Time;durP1;ratioP1;P1;durP2;ratioP2;P2;SDS_P1;SDS_P2;PMS_P1;PMS_P2;Temp;Humidity;BMP_temperature;BMP_pressure;BME280_temperature;BME280_humidity;BME280_pressure;Samples;Min_cycle;Max_cycle;Signal;HPM_P1;HPM_P2
2022/07/18 00:00:30;;;;;;;9.82;5.50;;;;;;;;;;6158239;23;20060;-81
2022/07/18 00:02:57;;;;;;;9.15;5.70;;;;;;;;;;6158341;23;20029;-81
2022/07/18 00:05:24;;;;;;;13.90;5.65;;;;;;;;;;6156859;23;20026;-82
2022/07/18 00:07:51;;;;;;;10.32;5.43;;;;;;;;;;6157349;23;20039;-81
2022/07/18 00:10:19;;;;;;;9.80;5.90;;;;;;;;;;6156311;23;20042;-82
2022/07/18 00:12:46;;;;;;;11.88;5.97;;;;;;;;;;6159256;23;20030;-81
2022/07/18 00:15:13;;;;;;;12.82;5.78;;;;;;;;;;6158505;23;20391;-82
2022/07/18 00:17:40;;;;;;;9.00;5.15;;;;;;;;;;6157036;23;20528;-82
2022/07/18 00:20:11;;;;;;;11.30;5.07;;;;;;;;;;6157715;23;20042;-81
2022/07/18 00:22:39;;;;;;;10.82;5.25;;;;;;;;;;6157119;23;20040;-82
2022/07/18 00:25:07;;;;;;;13.93;5.55;;;;;;;;;;6156584;23;20116;-82
2022/07/18 00:27:34;;;;;;;8.93;5.18;;;;;;;;;;6158309;23;20101;-82
2022/07/18 00:30:01;;;;;;;8.20;4.90;;;;;;;;;;6158212;23;20440;-82
2022/07/18 00:32:28;;;;;;;9.68;5.07;;;;;;;;;;6157768;23;20087;-82
2022/07/18 00:34:55;;;;;;;11.68;5.50;;;;;;;;;;6158458;23;20144;-82
2022/07/18 00:37:23;;;;;;;8.40;5.18;;;;;;;;;;6158473;23;20697;-82
2022/07/18 00:39:50;;;;;;;8.75;5.43;;;;;;;;;;6157586;23;20026;-82
2022/07/18 00:42:17;;;;;;;8.63;5.35;;;;;;;;;;6158515;23;20025;-82
2022/07/18 00:44:44;;;;;;;8.93;5.22;;;;;;;;;;6156342;23;20104;-81
2022/07/18 00:47:11;;;;;;;10.45;5.60;;;;;;;;;;6156661;23;20026;-82
2022/07/18 00:49:39;;;;;;;10.27;5.75;;;;;;;;;;6157861;23;20045;-81
2022/07/18 00:52:06;;;;;;;10.60;5.20;;;;;;;;;;6157776;23;20080;-82
2022/07/18 00:54:33;;;;;;;8.88;5.00;;;;;;;;;;6156403;23;20097;-82
2022/07/18 00:57:04;;;;;;;8.88;5.40;;;;;;;;;;6156502;23;20081;-82
2022/07/18 01:02:19;;;;;;;9.80;5.18;;;;;;;;;;6157825;23;20029;-82
2022/07/18 01:04:46;;;;;;;10.43;5.30;;;;;;;;;;6157505;23;20077;-82
2022/07/18 01:07:13;;;;;;;9.48;5.30;;;;;;;;;;6156632;23;20736;-82
2022/07/18 01:09:40;;;;;;;12.20;5.03;;;;;;;;;;6157257;23;20028;-82
2022/07/18 01:12:09;;;;;;;10.85;4.75;;;;;;;;;;6157214;23;20117;-82
2022/07/18 01:14:36;;;;;;;8.30;5.50;;;;;;;;;;6155386;23;20022;-82
2022/07/18 01:17:11;;;;;;;7.95;5.15;;;;;;;;;;6157732;23;20788;-82
2022/07/18 01:19:38;;;;;;;7.82;5.10;;;;;;;;;;6157725;23;20129;-82
2022/07/18 01:22:05;;;;;;;9.50;5.03;;;;;;;;;;6155818;23;20080;-82
2022/07/18 01:24:32;;;;;;;9.38;5.45;;;;;;;;;;6157171;23;20053;-82
2022/07/18 01:27:00;;;;;;;10.07;5.38;;;;;;;;;;6157352;23;20069;-82
2022/07/18 01:29:27;;;;;;;9.57;5.15;;;;;;;;;;6157904;23;20876;-82
2022/07/18 01:31:54;;;;;;;7.78;4.50;;;;;;;;;;6155576;23;20081;-82
2022/07/18 01:34:22;;;;;;;9.60;4.68;;;;;;;;;;6157892;23;20025;-82
2022/07/18 01:36:49;;;;;;;12.25;4.80;;;;;;;;;;6155175;23;20026;-82
2022/07/18 01:39:17;;;;;;;7.43;4.80;;;;;;;;;;6155574;23;20093;-82
2022/07/18 01:41:44;;;;;;;8.50;4.63;;;;;;;;;;6157466;23;20507;-82
2022/07/18 01:44:11;;;;;;;10.82;5.32;;;;;;;;;;6156238;23;20050;-81
2022/07/18 01:46:38;;;;;;;9.48;4.65;;;;;;;;;;6158020;23;20073;-81
2022/07/18 01:49:05;;;;;;;7.25;4.63;;;;;;;;;;6158860;23;20720;-81
2022/07/18 01:51:32;;;;;;;10.13;4.97;;;;;;;;;;6159037;23;20046;-81
2022/07/18 01:54:01;;;;;;;10.07;5.72;;;;;;;;;;6159569;23;20085;-81
2022/07/18 01:56:28;;;;;;;10.13;5.03;;;;;;;;;;6158546;23;20582;-81
2022/07/18 01:58:56;;;;;;;10.13;5.50;;;;;;;;;;6158262;23;20516;-81
2022/07/18 02:01:23;;;;;;;7.40;5.25;;;;;;;;;;6159226;23;20026;-81
2022/07/18 02:03:51;;;;;;;7.10;4.90;;;;;;;;;;6158517;23;20018;-81
2022/07/18 02:06:18;;;;;;;9.82;5.25;;;;;;;;;;6157009;23;20042;-81
2022/07/18 02:08:45;;;;;;;8.23;5.38;;;;;;;;;;6156762;23;20022;-81
2022/07/18 02:11:12;;;;;;;7.50;4.82;;;;;;;;;;6157953;23;20026;-81
2022/07/18 02:13:40;;;;;;;7.80;5.32;;;;;;;;;;6158052;23;20208;-81
2022/07/18 02:16:07;;;;;;;7.78;4.72;;;;;;;;;;6155681;23;20053;-82
2022/07/18 02:18:34;;;;;;;9.52;5.03;;;;;;;;;;6158319;23;20551;-81
2022/07/18 02:21:08;;;;;;;11.80;5.07;;;;;;;;;;6157535;23;20389;-82
2022/07/18 02:23:36;;;;;;;11.75;5.78;;;;;;;;;;6158685;23;20102;-81
2022/07/18 02:26:04;;;;;;;7.65;4.78;;;;;;;;;;6158993;23;20100;-82
2022/07/18 02:28:31;;;;;;;9.10;5.43;;;;;;;;;;6158099;23;20097;-83
2022/07/18 02:30:59;;;;;;;9.43;5.20;;;;;;;;;;6157183;23;20108;-82
2022/07/18 02:33:26;;;;;;;9.10;5.40;;;;;;;;;;6158610;23;20018;-82
2022/07/18 02:35:54;;;;;;;8.52;5.60;;;;;;;;;;6158164;23;20036;-82
2022/07/18 02:38:21;;;;;;;10.00;5.53;;;;;;;;;;6157555;23;20034;-82
2022/07/18 02:40:52;;;;;;;11.60;5.57;;;;;;;;;;6156458;23;20062;-82
2022/07/18 02:43:19;;;;;;;9.75;6.05;;;;;;;;;;6157206;23;20049;-81
2022/07/18 02:45:46;;;;;;;9.85;5.70;;;;;;;;;;6158198;23;20791;-81
2022/07/18 02:48:15;;;;;;;10.40;5.43;;;;;;;;;;6158717;23;20041;-82
2022/07/18 02:50:43;;;;;;;7.57;5.30;;;;;;;;;;6157787;23;20105;-82
2022/07/18 02:53:10;;;;;;;8.23;5.13;;;;;;;;;;6157822;23;20057;-82
2022/07/18 02:55:40;;;;;;;9.38;5.50;;;;;;;;;;6158091;23;20041;-82
2022/07/18 02:58:10;;;;;;;9.45;4.95;;;;;;;;;;6156969;23;20026;-82
2022/07/18 03:00:37;;;;;;;10.07;5.20;;;;;;;;;;6158809;23;20022;-82
2022/07/18 03:03:04;;;;;;;10.90;5.80;;;;;;;;;;6156481;23;20084;-82
2022/07/18 03:05:31;;;;;;;9.35;5.28;;;;;;;;;;6157205;23;20109;-82
2022/07/18 03:07:59;;;;;;;10.02;5.60;;;;;;;;;;6156916;23;20130;-82
2022/07/18 03:10:26;;;;;;;9.18;5.28;;;;;;;;;;6157198;23;20065;-82
2022/07/18 03:12:53;;;;;;;9.40;5.32;;;;;;;;;;6158164;23;20100;-82
2022/07/18 03:15:20;;;;;;;9.68;5.63;;;;;;;;;;6157605;23;20101;-82
2022/07/18 03:17:47;;;;;;;10.45;5.68;;;;;;;;;;6156955;23;20025;-82
2022/07/18 03:20:14;;;;;;;10.77;5.90;;;;;;;;;;6156248;23;20077;-82
2022/07/18 03:22:41;;;;;;;8.80;5.75;;;;;;;;;;6156975;23;20029;-82
2022/07/18 03:25:09;;;;;;;11.13;5.28;;;;;;;;;;6157748;23;20054;-82
2022/07/18 03:27:42;;;;;;;8.10;5.18;;;;;;;;;;6158126;23;20057;-82
2022/07/18 03:30:12;;;;;;;9.43;5.13;;;;;;;;;;6158405;23;20121;-82
2022/07/18 03:32:42;;;;;;;12.02;5.25;;;;;;;;;;6158135;23;20053;-82
2022/07/18 03:35:09;;;;;;;9.15;4.93;;;;;;;;;;6158982;23;20026;-82
2022/07/18 03:37:36;;;;;;;8.55;4.95;;;;;;;;;;6161055;23;20064;-82
2022/07/18 03:40:03;;;;;;;9.20;5.13;;;;;;;;;;6169449;23;20010;-82
2022/07/18 03:42:31;;;;;;;10.38;4.80;;;;;;;;;;6166409;23;20022;-81
2022/07/18 03:44:58;;;;;;;9.35;5.22;;;;;;;;;;6163055;23;20026;-82
2022/07/18 03:47:25;;;;;;;8.90;4.93;;;;;;;;;;6157965;23;20025;-81
2022/07/18 03:49:52;;;;;;;11.52;5.10;;;;;;;;;;6160055;23;20018;-81
2022/07/18 03:52:19;;;;;;;10.23;5.13;;;;;;;;;;6172674;23;20030;-81
2022/07/18 03:54:46;;;;;;;9.23;5.05;;;;;;;;;;6170626;23;20025;-82
2022/07/18 03:57:13;;;;;;;10.27;5.15;;;;;;;;;;6170923;23;20105;-81
2022/07/18 03:59:41;;;;;;;10.80;4.80;;;;;;;;;;6159968;23;20109;-82
2022/07/18 04:02:08;;;;;;;7.88;4.82;;;;;;;;;;6158957;23;20525;-82
2022/07/18 04:04:35;;;;;;;8.38;5.07;;;;;;;;;;6156573;23;20105;-82
2022/07/18 04:07:04;;;;;;;8.75;5.10;;;;;;;;;;6157161;23;20026;-82
2022/07/18 04:09:32;;;;;;;7.72;4.80;;;;;;;;;;6156432;23;20058;-82
2022/07/18 04:11:59;;;;;;;7.80;4.93;;;;;;;;;;6157078;23;20846;-82
2022/07/18 04:14:26;;;;;;;7.47;4.43;;;;;;;;;;6155809;23;20045;-82
2022/07/18 04:16:53;;;;;;;9.55;5.15;;;;;;;;;;6156013;23;20068;-81
2022/07/18 04:19:23;;;;;;;6.88;4.18;;;;;;;;;;6158065;23;20030;-82
2022/07/18 04:21:50;;;;;;;8.15;4.80;;;;;;;;;;6157457;23;20030;-82
2022/07/18 04:24:17;;;;;;;7.28;4.30;;;;;;;;;;6156535;23;20100;-83
2022/07/18 04:26:44;;;;;;;10.90;5.00;;;;;;;;;;6156044;23;20018;-82
2022/07/18 04:29:12;;;;;;;10.45;5.03;;;;;;;;;;6158036;23;20116;-82
2022/07/18 04:31:39;;;;;;;8.05;4.75;;;;;;;;;;6157674;23;20104;-82
2022/07/18 04:34:06;;;;;;;13.50;5.00;;;;;;;;;;6155161;23;20476;-83
2022/07/18 04:36:33;;;;;;;7.78;4.55;;;;;;;;;;6153809;23;20032;-82
2022/07/18 04:39:01;;;;;;;11.32;5.22;;;;;;;;;;6155253;23;20045;-82
2022/07/18 04:41:28;;;;;;;9.15;5.55;;;;;;;;;;6154571;23;20033;-82
2022/07/18 04:44:01;;;;;;;12.15;5.32;;;;;;;;;;6155882;23;20033;-82
2022/07/18 04:46:28;;;;;;;8.40;5.30;;;;;;;;;;6157032;23;20077;-82
2022/07/18 04:48:56;;;;;;;10.07;5.28;;;;;;;;;;6156119;23;20037;-82
2022/07/18 04:51:23;;;;;;;10.55;5.40;;;;;;;;;;6156262;23;20032;-82
2022/07/18 04:53:51;;;;;;;12.50;5.65;;;;;;;;;;6155633;23;20052;-82
2022/07/18 04:56:18;;;;;;;8.88;5.30;;;;;;;;;;6155226;23;20103;-82
2022/07/18 04:58:45;;;;;;;11.75;5.80;;;;;;;;;;6157364;23;20026;-81
2022/07/18 05:01:12;;;;;;;12.00;6.00;;;;;;;;;;6154503;23;20092;-82
2022/07/18 05:03:39;;;;;;;13.05;6.18;;;;;;;;;;6155376;23;20022;-82
2022/07/18 05:06:06;;;;;;;12.13;6.55;;;;;;;;;;6157267;23;20101;-82
2022/07/18 05:08:33;;;;;;;10.93;6.00;;;;;;;;;;6155694;23;20820;-82
2022/07/18 05:11:01;;;;;;;10.63;6.40;;;;;;;;;;6153081;23;20101;-83
2022/07/18 05:13:28;;;;;;;8.32;5.78;;;;;;;;;;6155093;23;20018;-82
2022/07/18 05:15:55;;;;;;;11.75;6.15;;;;;;;;;;6157418;23;20464;-82
2022/07/18 05:18:22;;;;;;;10.48;6.20;;;;;;;;;;6155222;23;20709;-82
2022/07/18 05:20:50;;;;;;;10.55;6.05;;;;;;;;;;6156327;23;20020;-83
2022/07/18 05:23:17;;;;;;;10.65;6.50;;;;;;;;;;6156642;23;20073;-82
2022/07/18 05:25:44;;;;;;;11.70;6.28;;;;;;;;;;6156224;23;20865;-82
2022/07/18 05:28:12;;;;;;;9.20;5.90;;;;;;;;;;6157992;23;20053;-83
2022/07/18 05:30:39;;;;;;;15.98;7.35;;;;;;;;;;6156260;23;20018;-82
2022/07/18 05:33:06;;;;;;;12.23;6.55;;;;;;;;;;6155585;23;20813;-82
2022/07/18 05:35:33;;;;;;;21.23;6.65;;;;;;;;;;6155925;23;20022;-83
2022/07/18 05:38:01;;;;;;;19.35;8.05;;;;;;;;;;6155522;23;20073;-82
2022/07/18 05:40:28;;;;;;;12.90;6.85;;;;;;;;;;6157227;23;20069;-83
2022/07/18 05:42:55;;;;;;;23.38;6.55;;;;;;;;;;6157024;23;20022;-82
2022/07/18 05:45:23;;;;;;;15.90;7.00;;;;;;;;;;6156459;23;20029;-82
2022/07/18 05:47:50;;;;;;;15.18;7.50;;;;;;;;;;6156378;23;20022;-82
2022/07/18 05:50:17;;;;;;;20.13;7.65;;;;;;;;;;6159084;23;20018;-82
2022/07/18 05:52:45;;;;;;;18.10;8.20;;;;;;;;;;6157396;23;20476;-83
2022/07/18 05:55:12;;;;;;;21.73;8.20;;;;;;;;;;6156733;23;20025;-83
2022/07/18 05:57:40;;;;;;;19.13;8.15;;;;;;;;;;6156071;23;20068;-82
2022/07/18 06:00:08;;;;;;;15.65;7.90;;;;;;;;;;6158498;23;20076;-82
2022/07/18 06:02:35;;;;;;;17.50;7.57;;;;;;;;;;6156836;23;20092;-83
2022/07/18 06:05:03;;;;;;;12.55;6.57;;;;;;;;;;6158617;23;20790;-83
2022/07/18 06:07:51;;;;;;;12.80;6.65;;;;;;;;;;6157643;23;20030;-83
2022/07/18 06:10:22;;;;;;;13.82;6.57;;;;;;;;;;6158297;23;20033;-83
2022/07/18 06:12:49;;;;;;;11.60;6.47;;;;;;;;;;6155355;23;20571;-83
2022/07/18 06:15:17;;;;;;;14.32;6.65;;;;;;;;;;6156113;23;20074;-83
2022/07/18 06:17:47;;;;;;;14.68;6.22;;;;;;;;;;6155770;23;20479;-87
2022/07/18 06:20:16;;;;;;;13.45;6.53;;;;;;;;;;6156104;23;20081;-83
2022/07/18 06:22:43;;;;;;;10.02;5.50;;;;;;;;;;6156247;23;20022;-83
2022/07/18 06:25:10;;;;;;;11.15;5.63;;;;;;;;;;6157903;23;20021;-83
2022/07/18 06:27:38;;;;;;;12.05;5.68;;;;;;;;;;6155667;23;20048;-83
2022/07/18 06:30:07;;;;;;;10.30;5.60;;;;;;;;;;6156007;23;20026;-83
2022/07/18 06:32:34;;;;;;;14.48;6.35;;;;;;;;;;6156124;23;20026;-83
2022/07/18 06:35:01;;;;;;;9.82;5.35;;;;;;;;;;6156586;23;20834;-83
2022/07/18 06:37:29;;;;;;;13.60;6.05;;;;;;;;;;6158187;23;20033;-83
2022/07/18 06:39:56;;;;;;;8.32;5.50;;;;;;;;;;6158379;23;20116;-83
2022/07/18 06:42:29;;;;;;;13.15;5.38;;;;;;;;;;6156367;23;20033;-83
2022/07/18 06:44:57;;;;;;;15.27;6.30;;;;;;;;;;6156426;23;20018;-83
2022/07/18 06:47:24;;;;;;;12.95;5.20;;;;;;;;;;6156561;23;20025;-83
2022/07/18 06:49:51;;;;;;;10.23;5.00;;;;;;;;;;6156544;23;20861;-83
2022/07/18 06:52:19;;;;;;;15.27;4.93;;;;;;;;;;6157775;23;20459;-84
2022/07/18 06:54:48;;;;;;;12.65;4.45;;;;;;;;;;6156704;23;20018;-83
2022/07/18 06:57:15;;;;;;;10.35;4.93;;;;;;;;;;6156054;23;20353;-83
2022/07/18 06:59:42;;;;;;;16.88;5.93;;;;;;;;;;6156268;23;20400;-83
2022/07/18 07:02:16;;;;;;;8.52;5.13;;;;;;;;;;6156763;23;20772;-83
2022/07/18 07:04:44;;;;;;;15.85;4.80;;;;;;;;;;6156897;23;20026;-83
2022/07/18 07:07:11;;;;;;;10.80;3.75;;;;;;;;;;6158221;23;20022;-83
2022/07/18 07:09:38;;;;;;;12.60;4.30;;;;;;;;;;6157712;23;20060;-83
2022/07/18 07:12:09;;;;;;;7.97;3.05;;;;;;;;;;6156564;23;20042;-82
2022/07/18 07:14:37;;;;;;;8.38;2.78;;;;;;;;;;6155958;23;20046;-82
2022/07/18 07:17:05;;;;;;;6.65;2.75;;;;;;;;;;6156431;23;20495;-83
2022/07/18 07:19:33;;;;;;;9.00;3.33;;;;;;;;;;6155975;23;20022;-83
2022/07/18 07:22:00;;;;;;;16.50;3.42;;;;;;;;;;6156503;23;20018;-83
2022/07/18 07:24:30;;;;;;;9.02;3.15;;;;;;;;;;6155359;23;20022;-83
2022/07/18 07:27:00;;;;;;;11.10;3.33;;;;;;;;;;6156492;23;20033;-83
2022/07/18 07:29:33;;;;;;;10.65;3.40;;;;;;;;;;6155724;23;20032;-83
2022/07/18 07:32:01;;;;;;;9.35;2.78;;;;;;;;;;6158215;23;20338;-83
2022/07/18 07:34:30;;;;;;;12.35;3.63;;;;;;;;;;6157348;23;20842;-83
2022/07/18 07:36:57;;;;;;;5.90;3.10;;;;;;;;;;6155862;23;20053;-83
2022/07/18 07:39:24;;;;;;;8.57;3.33;;;;;;;;;;6156647;23;20030;-83
2022/07/18 07:41:55;;;;;;;7.13;3.15;;;;;;;;;;6155728;23;20467;-83
2022/07/18 07:44:30;;;;;;;11.63;3.50;;;;;;;;;;6156816;23;20861;-83
2022/07/18 07:46:59;;;;;;;10.27;2.88;;;;;;;;;;6158110;23;20100;-83
2022/07/18 07:49:26;;;;;;;10.43;3.10;;;;;;;;;;6156722;23;20018;-83
2022/07/18 07:51:56;;;;;;;8.55;3.22;;;;;;;;;;6156165;23;20025;-83
2022/07/18 07:54:23;;;;;;;11.82;3.15;;;;;;;;;;6156384;23;20548;-83
2022/07/18 07:56:53;;;;;;;9.02;2.90;;;;;;;;;;6155758;23;20030;-83
2022/07/18 07:59:20;;;;;;;7.72;2.90;;;;;;;;;;6157413;23;20017;-83
2022/07/18 08:01:47;;;;;;;8.18;3.15;;;;;;;;;;6156327;23;20018;-83
2022/07/18 08:04:15;;;;;;;10.82;2.90;;;;;;;;;;6156525;23;20495;-83
2022/07/18 08:06:42;;;;;;;10.55;2.80;;;;;;;;;;6157059;23;20464;-83
2022/07/18 08:09:09;;;;;;;7.72;2.47;;;;;;;;;;6158691;23;20018;-83
2022/07/18 08:11:40;;;;;;;8.60;2.53;;;;;;;;;;6162539;23;20025;-83
2022/07/18 08:14:10;;;;;;;6.72;2.53;;;;;;;;;;6161041;23;20029;-84
2022/07/18 08:16:38;;;;;;;6.65;2.70;;;;;;;;;;6158843;23;20034;-84
2022/07/18 08:19:15;;;;;;;11.65;3.00;;;;;;;;;;6156470;23;20033;-83
2022/07/18 08:21:42;;;;;;;9.90;2.80;;;;;;;;;;6158355;23;20018;-83
2022/07/18 08:24:10;;;;;;;13.60;2.40;;;;;;;;;;6154116;23;20017;-83
2022/07/18 08:26:39;;;;;;;6.07;2.38;;;;;;;;;;6155151;23;20718;-83
2022/07/18 08:29:07;;;;;;;7.85;2.30;;;;;;;;;;6156272;23;20014;-83
2022/07/18 08:31:54;;;;;;;8.20;2.30;;;;;;;;;;6156898;23;20664;-83
2022/07/18 08:34:23;;;;;;;5.88;2.10;;;;;;;;;;6155304;23;20089;-83
2022/07/18 08:36:51;;;;;;;3.58;2.00;;;;;;;;;;6156585;23;20042;-83
2022/07/18 08:39:43;;;;;;;10.05;2.58;;;;;;;;;;6156504;23;20453;-84
2022/07/18 08:42:15;;;;;;;9.07;2.40;;;;;;;;;;6155139;23;20025;-83
2022/07/18 08:44:52;;;;;;;9.07;2.75;;;;;;;;;;6156971;23;20033;-83
2022/07/18 08:47:25;;;;;;;9.15;2.90;;;;;;;;;;6155694;23;20033;-84
2022/07/18 08:50:07;;;;;;;6.82;2.67;;;;;;;;;;6153273;23;20778;-83
2022/07/18 08:52:35;;;;;;;5.82;2.80;;;;;;;;;;6157575;23;20022;-84
2022/07/18 08:55:19;;;;;;;5.90;2.30;;;;;;;;;;6156811;23;20698;-83
2022/07/18 08:57:52;;;;;;;7.50;2.20;;;;;;;;;;6157757;23;20061;-83
2022/07/18 09:00:21;;;;;;;8.48;3.05;;;;;;;;;;6157026;23;20029;-83
2022/07/18 09:03:03;;;;;;;5.88;2.00;;;;;;;;;;6160484;23;20021;-83
2022/07/18 09:05:33;;;;;;;5.32;2.30;;;;;;;;;;6173550;23;20048;-83
2022/07/18 09:08:19;;;;;;;7.93;2.05;;;;;;;;;;6162652;23;20022;-83
2022/07/18 09:10:51;;;;;;;4.97;1.90;;;;;;;;;;6157938;23;20022;-84
2022/07/18 09:13:22;;;;;;;4.07;2.08;;;;;;;;;;6164975;23;20025;-83
2022/07/18 09:16:01;;;;;;;6.65;2.17;;;;;;;;;;6170864;23;20022;-83
2022/07/18 09:18:31;;;;;;;8.55;2.00;;;;;;;;;;6175347;23;20026;-82
2022/07/18 09:21:18;;;;;;;6.72;2.40;;;;;;;;;;6174198;23;20026;-83
2022/07/18 09:23:56;;;;;;;7.03;2.10;;;;;;;;;;6163660;23;20077;-83
2022/07/18 09:26:42;;;;;;;10.00;2.22;;;;;;;;;;6157652;23;20053;-83
2022/07/18 09:29:17;;;;;;;5.75;2.25;;;;;;;;;;6156670;23;20026;-83
2022/07/18 09:31:55;;;;;;;8.35;2.17;;;;;;;;;;6159187;23;20037;-83
2022/07/18 09:34:36;;;;;;;15.65;2.42;;;;;;;;;;6155261;23;20014;-83
2022/07/18 09:37:03;;;;;;;6.25;2.33;;;;;;;;;;6155309;23;20018;-83
2022/07/18 09:39:33;;;;;;;6.72;2.42;;;;;;;;;;6153731;23;20475;-83
2022/07/18 09:42:17;;;;;;;6.30;2.33;;;;;;;;;;6155195;23;20812;-83
2022/07/18 09:44:58;;;;;;;5.63;2.33;;;;;;;;;;6153183;23;20047;-84
2022/07/18 09:47:28;;;;;;;6.20;2.25;;;;;;;;;;6154568;23;20022;-83
2022/07/18 09:50:03;;;;;;;8.10;2.30;;;;;;;;;;6155551;23;20026;-83
2022/07/18 09:52:39;;;;;;;8.68;2.28;;;;;;;;;;6155187;23;20050;-83
2022/07/18 09:55:07;;;;;;;9.75;2.50;;;;;;;;;;6157071;23;20018;-83
2022/07/18 09:57:41;;;;;;;10.38;2.22;;;;;;;;;;6157008;23;20042;-83
2022/07/18 10:00:08;;;;;;;12.30;2.20;;;;;;;;;;6156526;23;20022;-82
2022/07/18 10:02:36;;;;;;;7.10;2.33;;;;;;;;;;6155155;23;20018;-83
2022/07/18 10:05:13;;;;;;;8.25;2.35;;;;;;;;;;6155919;23;20101;-83
2022/07/18 10:07:44;;;;;;;8.65;2.35;;;;;;;;;;6156811;23;20021;-83
2022/07/18 10:10:15;;;;;;;11.75;2.75;;;;;;;;;;6157684;23;20628;-83
2022/07/18 10:12:46;;;;;;;15.43;2.60;;;;;;;;;;6156876;23;20014;-83
2022/07/18 10:15:14;;;;;;;15.82;2.58;;;;;;;;;;6156939;23;20061;-83
2022/07/18 10:17:47;;;;;;;12.85;2.70;;;;;;;;;;6157502;23;20025;-83
2022/07/18 10:20:15;;;;;;;7.07;2.53;;;;;;;;;;6158308;23;20022;-83
2022/07/18 10:22:50;;;;;;;8.70;1.87;;;;;;;;;;6157960;23;20030;-82
2022/07/18 10:25:21;;;;;;;6.70;2.22;;;;;;;;;;6155872;23;20021;-82
2022/07/18 10:27:54;;;;;;;7.25;2.50;;;;;;;;;;6157127;23;20033;-82
2022/07/18 10:30:30;;;;;;;8.10;2.57;;;;;;;;;;6156191;23;20030;-82
2022/07/18 10:32:57;;;;;;;5.40;2.13;;;;;;;;;;6156966;23;20025;-82
2022/07/18 10:35:46;;;;;;;8.20;3.10;;;;;;;;;;6156306;23;20049;-82
2022/07/18 10:38:23;;;;;;;5.70;2.58;;;;;;;;;;6156177;23;20018;-82
2022/07/18 10:41:05;;;;;;;6.70;2.35;;;;;;;;;;6156579;23;20416;-82
2022/07/18 10:43:34;;;;;;;9.88;2.65;;;;;;;;;;6154932;23;20471;-82
2022/07/18 10:46:02;;;;;;;8.02;2.28;;;;;;;;;;6155714;23;20356;-82
2022/07/18 10:48:35;;;;;;;8.60;2.35;;;;;;;;;;6156102;23;20075;-82
2022/07/18 10:51:09;;;;;;;11.35;2.40;;;;;;;;;;6156883;23;20151;-82
2022/07/18 10:53:57;;;;;;;5.20;2.13;;;;;;;;;;6156964;23;20018;-82
2022/07/18 10:56:28;;;;;;;13.60;2.15;;;;;;;;;;6156774;23;20376;-83
2022/07/18 10:58:56;;;;;;;6.18;2.40;;;;;;;;;;6157290;23;20069;-81
2022/07/18 11:01:24;;;;;;;7.65;2.30;;;;;;;;;;6158037;23;20054;-82
2022/07/18 11:04:10;;;;;;;8.50;2.63;;;;;;;;;;6156082;23;20021;-83
2022/07/18 11:06:54;;;;;;;6.40;2.80;;;;;;;;;;6155558;23;20073;-82
2022/07/18 11:09:37;;;;;;;8.68;2.13;;;;;;;;;;6155115;23;20518;-82
2022/07/18 11:12:21;;;;;;;6.30;2.40;;;;;;;;;;6157285;23;20015;-81
2022/07/18 11:15:12;;;;;;;6.10;2.40;;;;;;;;;;6154241;23;20870;-82
2022/07/18 11:17:55;;;;;;;9.40;2.60;;;;;;;;;;6156883;23;20018;-82
2022/07/18 11:20:40;;;;;;;6.00;2.92;;;;;;;;;;6155976;23;20392;-82
2022/07/18 11:23:16;;;;;;;12.70;3.55;;;;;;;;;;6157583;23;20057;-81
2022/07/18 11:25:45;;;;;;;8.07;2.60;;;;;;;;;;6155883;23;20033;-81
2022/07/18 11:28:25;;;;;;;8.50;2.42;;;;;;;;;;6158354;23;20054;-82
2022/07/18 11:31:03;;;;;;;9.25;2.50;;;;;;;;;;6162556;23;20879;-82
2022/07/18 11:33:34;;;;;;;7.63;1.98;;;;;;;;;;6156907;23;20121;-82
2022/07/18 11:36:22;;;;;;;7.10;2.00;;;;;;;;;;6156286;23;20025;-82
2022/07/18 11:38:51;;;;;;;7.95;2.25;;;;;;;;;;6156235;23;20105;-82
2022/07/18 11:41:20;;;;;;;8.82;2.20;;;;;;;;;;6156272;23;20030;-82
2022/07/18 11:43:49;;;;;;;10.45;2.20;;;;;;;;;;6154759;23;20022;-82
2022/07/18 11:46:18;;;;;;;5.30;2.05;;;;;;;;;;6155635;23;20061;-82
2022/07/18 11:48:47;;;;;;;8.07;1.85;;;;;;;;;;6156270;23;20709;-82
2022/07/18 11:51:19;;;;;;;7.00;2.33;;;;;;;;;;6156632;23;20097;-82
2022/07/18 11:53:47;;;;;;;6.10;1.90;;;;;;;;;;6155167;23;20033;-82
2022/07/18 11:56:19;;;;;;;5.32;1.90;;;;;;;;;;6157107;23;20057;-84
2022/07/18 11:58:56;;;;;;;6.43;1.90;;;;;;;;;;6155517;23;20483;-83
2022/07/18 12:01:33;;;;;;;5.50;1.90;;;;;;;;;;6155882;23;20022;-82
2022/07/18 12:04:02;;;;;;;6.88;1.90;;;;;;;;;;6155423;23;20652;-82
2022/07/18 12:06:29;;;;;;;7.28;2.13;;;;;;;;;;6157021;23;20060;-82
2022/07/18 12:09:06;;;;;;;4.65;2.40;;;;;;;;;;6154888;23;20022;-83
2022/07/18 12:11:35;;;;;;;6.47;2.08;;;;;;;;;;6154395;23;20034;-83
2022/07/18 12:14:14;;;;;;;5.00;2.15;;;;;;;;;;6153949;23;20046;-83
2022/07/18 12:16:49;;;;;;;5.18;2.10;;;;;;;;;;6155748;23;20081;-81
2022/07/18 12:19:24;;;;;;;8.15;2.10;;;;;;;;;;6154519;23;20046;-82
2022/07/18 12:21:53;;;;;;;4.95;2.10;;;;;;;;;;6155681;23;20567;-83
2022/07/18 12:24:40;;;;;;;4.40;2.20;;;;;;;;;;6155893;23;20064;-82
2022/07/18 12:27:24;;;;;;;5.50;2.30;;;;;;;;;;6154928;23;20029;-82
2022/07/18 12:29:54;;;;;;;8.10;2.00;;;;;;;;;;6155139;23;20029;-82
2022/07/18 12:32:29;;;;;;;6.05;1.90;;;;;;;;;;6155053;23;20041;-82
2022/07/18 12:35:00;;;;;;;7.82;2.75;;;;;;;;;;6155964;23;20026;-82
2022/07/18 12:37:30;;;;;;;8.00;2.42;;;;;;;;;;6155827;23;20085;-83
2022/07/18 12:40:01;;;;;;;6.07;2.50;;;;;;;;;;6154778;23;20028;-83
2022/07/18 12:42:43;;;;;;;4.10;2.20;;;;;;;;;;6154162;23;20022;-82
2022/07/18 12:45:13;;;;;;;6.13;2.05;;;;;;;;;;6157371;23;20056;-82
2022/07/18 12:47:51;;;;;;;5.40;2.30;;;;;;;;;;6157551;23;20099;-82
2022/07/18 12:50:35;;;;;;;7.95;2.20;;;;;;;;;;6158723;23;20018;-83
2022/07/18 12:53:14;;;;;;;4.55;2.28;;;;;;;;;;6157819;23;20096;-83
2022/07/18 12:55:51;;;;;;;5.57;2.25;;;;;;;;;;6155448;23;20480;-83
2022/07/18 12:58:22;;;;;;;5.30;2.20;;;;;;;;;;6155297;23;20018;-83
2022/07/18 13:01:06;;;;;;;4.30;2.42;;;;;;;;;;6125293;23;20026;-85
2022/07/18 13:03:55;;;;;;;7.15;2.30;;;;;;;;;;6122932;23;20461;-83
2022/07/18 13:06:35;;;;;;;4.50;2.03;;;;;;;;;;6124008;23;20174;-83
2022/07/18 13:09:05;;;;;;;5.30;2.30;;;;;;;;;;6124011;23;20018;-84
2022/07/18 13:11:40;;;;;;;8.07;2.38;;;;;;;;;;6122696;23;20026;-84
2022/07/18 13:14:15;;;;;;;10.23;2.55;;;;;;;;;;6123759;23;20089;-83
2022/07/18 13:16:52;;;;;;;5.45;1.75;;;;;;;;;;6124122;23;20058;-83
2022/07/18 13:19:23;;;;;;;10.73;2.08;;;;;;;;;;6124902;23;20101;-83
2022/07/18 13:21:51;;;;;;;5.45;2.15;;;;;;;;;;6124230;23;20042;-83
2022/07/18 13:24:19;;;;;;;3.42;1.75;;;;;;;;;;6123466;23;20491;-83
2022/07/18 13:27:01;;;;;;;3.85;2.10;;;;;;;;;;6124456;23;20419;-83
2022/07/18 13:29:29;;;;;;;5.00;2.03;;;;;;;;;;6124111;23;20041;-83
2022/07/18 13:31:56;;;;;;;7.95;2.15;;;;;;;;;;6133421;23;20069;-83
2022/07/18 13:34:24;;;;;;;5.68;2.35;;;;;;;;;;6126702;23;20015;-83
2022/07/18 13:36:52;;;;;;;3.85;1.98;;;;;;;;;;6126050;23;20022;-83
2022/07/18 13:39:20;;;;;;;5.00;2.05;;;;;;;;;;6126977;23;20022;-83
2022/07/18 13:41:48;;;;;;;4.18;1.90;;;;;;;;;;6127304;23;20333;-83
2022/07/18 13:44:15;;;;;;;3.40;1.85;;;;;;;;;;6128760;23;20018;-83
2022/07/18 13:46:43;;;;;;;3.60;1.90;;;;;;;;;;6127048;23;20562;-83
2022/07/18 13:49:17;;;;;;;4.03;1.90;;;;;;;;;;6126432;23;20029;-83
2022/07/18 13:51:45;;;;;;;6.38;2.10;;;;;;;;;;6127400;23;20904;-83
2022/07/18 13:54:16;;;;;;;6.20;1.92;;;;;;;;;;6125728;23;20070;-83
2022/07/18 13:56:44;;;;;;;6.03;1.83;;;;;;;;;;6127002;23;20023;-83
2022/07/18 13:59:14;;;;;;;7.22;2.10;;;;;;;;;;6127566;23;20039;-83
2022/07/18 14:01:44;;;;;;;4.88;1.80;;;;;;;;;;6127787;23;20019;-82
2022/07/18 14:04:13;;;;;;;7.18;2.08;;;;;;;;;;6127303;23;20053;-83
2022/07/18 14:06:47;;;;;;;5.03;2.40;;;;;;;;;;6128155;23;20555;-83
2022/07/18 14:09:15;;;;;;;3.60;2.20;;;;;;;;;;6127367;23;20026;-83
2022/07/18 14:11:42;;;;;;;4.50;2.20;;;;;;;;;;6145341;23;20052;-83
2022/07/18 14:14:12;;;;;;;6.28;2.25;;;;;;;;;;6156301;23;20085;-83
2022/07/18 14:16:40;;;;;;;5.32;2.20;;;;;;;;;;6157630;23;20022;-83
2022/07/18 14:19:10;;;;;;;4.07;2.22;;;;;;;;;;6157898;23;20064;-83
2022/07/18 14:21:38;;;;;;;5.13;2.13;;;;;;;;;;6159378;23;20018;-83
2022/07/18 14:24:08;;;;;;;6.05;2.28;;;;;;;;;;6157641;23;20018;-82
2022/07/18 14:26:36;;;;;;;5.90;2.13;;;;;;;;;;6160441;23;20223;-82
2022/07/18 14:29:10;;;;;;;5.25;1.90;;;;;;;;;;6163128;23;20113;-82
2022/07/18 14:31:37;;;;;;;5.45;2.15;;;;;;;;;;6174100;23;20002;-83
2022/07/18 14:34:04;;;;;;;3.15;2.00;;;;;;;;;;6178942;23;20018;-83
2022/07/18 14:36:32;;;;;;;9.57;2.00;;;;;;;;;;6176292;23;20450;-82
2022/07/18 14:38:59;;;;;;;10.27;2.22;;;;;;;;;;6163395;23;20194;-83
2022/07/18 14:41:27;;;;;;;4.50;2.22;;;;;;;;;;6158141;23;20026;-82
2022/07/18 14:43:54;;;;;;;4.32;1.92;;;;;;;;;;6166534;23;20014;-82
2022/07/18 14:46:22;;;;;;;4.82;2.05;;;;;;;;;;6176495;23;20042;-83
2022/07/18 14:48:51;;;;;;;4.50;2.20;;;;;;;;;;6176846;23;20041;-83
2022/07/18 14:51:19;;;;;;;3.00;1.90;;;;;;;;;;6167917;23;20054;-83
2022/07/18 14:53:46;;;;;;;8.60;2.15;;;;;;;;;;6159873;23;20023;-83
2022/07/18 14:56:20;;;;;;;7.72;2.20;;;;;;;;;;6156722;23;20033;-84
2022/07/18 14:58:52;;;;;;;5.00;2.17;;;;;;;;;;6157249;23;20468;-82